KAUM

Austin Municipal Airport

Austin, Minnesota, USA
METAR KAUM 232215Z AUTO 29009KT 10SM CLR M04/M07 A3024 RMK AO2
Observed Flight Rules
Feb-23 @ 22:15 UTC (23 minutes ago) Visual Flight Rules
Wind Visibility Clouds
290° at 9 knots 10 miles
  • Clear skies
Temperatures Readings
Current -4°C / 25°F
Dewpoint -7°C / 19°F
Humidity 80%
Altimeter 30.24" Hg
Pressure 1024 hPa
Elevation 375
METAR KAUM 232215Z AUTO 29009KT 10SM CLR M04/M07 A3024 RMK AO2
Observed Flight Rules
Feb-23 @ 22:15 UTC
(23 minutes ago)
VFR
Wind Visibility
290° at 9 knots 10 miles
Clouds
  • Clear skies
Temperature Dewpoint
-4°C / 25°F -7°C / 19°F
Humidity Altimeter Pressure
80% 30.24" Hg 1024 hPa